Detailed System and Site Information

System Data Health
Measure Timestamp Ago Health
Web Server Live 18:39:50, 28th July 2015 0 s health
Last live-data upload from local system (nw3) 18:39:48, 28th July 2015 2 s health
Last upload of secondary data 18:00:25, 28th July 2015 39 mins health
Latest Webcam upload 18:39:08, 28th July 2015 42 s health
Last upload of 24hr data log 18:39:08, 28th July 2015 42 s health
Last full data process 18:35:02, 28th July 2015 5 mins health
Last data downtime (>15 mins) 21:46:01, 15th June 2015 43 days
Local System and Site Information
Measure Value
WD Version & Build # 10.37R - 40
WD Start Time 08:13 12/07/15
WD Data Count 493979
WD Memory Use 73,864 K
--- ---
Windows Uptime 16 Days 9 Hours 47 Minutes 55 Seconds
Free System Memory 2581 MB (Max: 4GB)
--- ---
Station Altitude 57 m (187 ft)
Station Latitude 51.556
Station Longitude -0.154
Machine Room Conditions
Measure Value
Temperature 21.7 °C
Temperature Trend -0.1 °C /hr
Relative Humidity 42%
Dew Point 8.2 °C
--- ---
Tmin Today 21.6 °C at 01:13
Tmax Today 30.0 °C at 17:47
Hmin Today 42% at 15:36
Hmax Today 47% at 03:03
Tmin Yesterday 16.0 °C at 08:22
Tmax Yesterday 21.8 °C at 23:44

Site owner and administrator: Ben Lee-Rodgers (2010 - present)

Last 10hrs Temp/Hum for Secondary Sensor and Indoors

Extra Sensors/Indoor

Other

Raw METAR from EGLL (Heathrow)

EGLL 281650Z 26017KT CAVOK 19/07 Q1006
Decode Instructions
Source

WD Screenshot

not available